Terminal Aerodrome Forecast
Issued by NWS

Home | Current Version | Previous Version | Graphics & Text | Print | Product List | Glossary On
Versions: 1 2 3 4 5 6 7 8 9 10 11 12 13 14 15 16 17 18 19 20 21 22 23 24 25 26 27 28 29 30 31 32 33
000
FTUS43 KLOT 221421 AAA
TAFORD
TAF AMD
KORD 221421Z 2214/2318 22010KT 2SM BR OVC003
      TEMPO 2214/2216 3/4SM BR VV003
     FM221600 21010KT 4SM BR SCT030
     FM221800 20015G25KT P6SM SKC
     FM222300 24010KT P6SM SKC
     FM230700 29008KT 5SM BR SCT250
     FM231500 02009KT P6SM BKN030=

USA.gov is the U.S. government's official web portal to all federal, state and local government web resources and services.